Time;durP1;ratioP1;P1;durP2;ratioP2;P2;SDS_P1;SDS_P2;PMS_P1;PMS_P2;Temp;Humidity;BMP_temperature;BMP_pressure;BME280_temperature;BME280_humidity;BME280_pressure;Samples;Min_cycle;Max_cycle;Signal;HPM_P1;HPM_P2
2023/12/04 00:01:43;;;;;;;12.23;7.20;;;;;;;;;;5067126;28;20035;-54
2023/12/04 00:04:09;;;;;;;13.10;8.55;;;;;;;;;;5067564;28;20028;-48
2023/12/04 00:06:35;;;;;;;12.00;7.10;;;;;;;;;;5067009;28;20043;-48
2023/12/04 00:09:01;;;;;;;12.82;7.60;;;;;;;;;;5066629;28;20020;-46
2023/12/04 00:11:27;;;;;;;12.93;8.27;;;;;;;;;;5066212;28;20292;-47
2023/12/04 00:13:53;;;;;;;12.50;7.30;;;;;;;;;;5083376;23;20040;-53
2023/12/04 00:16:19;;;;;;;12.85;7.55;;;;;;;;;;5090179;28;20028;-52
2023/12/04 00:18:45;;;;;;;12.75;7.45;;;;;;;;;;5092405;28;20020;-50
2023/12/04 00:21:11;;;;;;;13.70;7.75;;;;;;;;;;5090440;28;20108;-53
2023/12/04 00:23:37;;;;;;;12.75;7.63;;;;;;;;;;5088366;28;20735;-50
2023/12/04 00:26:03;;;;;;;12.90;7.50;;;;;;;;;;5088130;28;20118;-50
2023/12/04 00:28:29;;;;;;;13.55;8.30;;;;;;;;;;5089469;28;20390;-48
2023/12/04 00:30:55;;;;;;;13.35;8.00;;;;;;;;;;5087955;28;20596;-49
2023/12/04 00:33:21;;;;;;;13.05;7.70;;;;;;;;;;5089893;28;20031;-53
2023/12/04 00:35:47;;;;;;;13.93;8.05;;;;;;;;;;5090231;28;20389;-53
2023/12/04 00:38:13;;;;;;;13.40;8.30;;;;;;;;;;5090053;28;20028;-52
2023/12/04 00:40:40;;;;;;;15.50;9.25;;;;;;;;;;5088770;28;20054;-52
2023/12/04 00:43:06;;;;;;;13.05;7.70;;;;;;;;;;5090344;28;20052;-49
2023/12/04 00:45:32;;;;;;;13.10;7.78;;;;;;;;;;5090097;28;20028;-48
2023/12/04 00:47:58;;;;;;;13.07;7.60;;;;;;;;;;5088887;28;20020;-51
2023/12/04 00:50:24;;;;;;;13.02;7.57;;;;;;;;;;5089789;28;20024;-54
2023/12/04 00:52:50;;;;;;;13.30;8.10;;;;;;;;;;5090030;28;20099;-53
2023/12/04 00:55:16;;;;;;;12.88;7.50;;;;;;;;;;5090093;28;20553;-53
2023/12/04 00:57:42;;;;;;;13.02;7.55;;;;;;;;;;5089736;28;20405;-56
2023/12/04 01:00:08;;;;;;;12.45;7.22;;;;;;;;;;5089694;28;20033;-53
2023/12/04 01:02:34;;;;;;;12.93;7.70;;;;;;;;;;5089852;28;20020;-52
2023/12/04 01:05:00;;;;;;;12.98;7.57;;;;;;;;;;5089959;28;20035;-52
2023/12/04 01:07:26;;;;;;;12.95;7.53;;;;;;;;;;5090317;28;20016;-51
2023/12/04 01:09:52;;;;;;;13.18;7.68;;;;;;;;;;5089814;28;20024;-46
2023/12/04 01:12:18;;;;;;;13.90;9.52;;;;;;;;;;5089796;28;20016;-51
2023/12/04 01:14:44;;;;;;;18.35;8.52;;;;;;;;;;5089873;28;20111;-48
2023/12/04 01:17:10;;;;;;;12.90;7.53;;;;;;;;;;5090033;28;20059;-49
2023/12/04 01:19:36;;;;;;;13.35;8.13;;;;;;;;;;5088403;28;20512;-47
2023/12/04 01:22:02;;;;;;;12.80;7.47;;;;;;;;;;5093540;28;20024;-49
2023/12/04 01:24:28;;;;;;;13.10;7.75;;;;;;;;;;5093775;28;20032;-53
2023/12/04 01:26:54;;;;;;;13.00;7.90;;;;;;;;;;5093668;28;20040;-52
2023/12/04 01:29:20;;;;;;;15.95;11.88;;;;;;;;;;5093487;28;20020;-50
2023/12/04 01:31:46;;;;;;;13.27;8.82;;;;;;;;;;5093575;28;20028;-47
2023/12/04 01:34:12;;;;;;;13.45;8.95;;;;;;;;;;5093973;28;20107;-50
2023/12/04 01:36:41;;;;;;;12.80;7.45;;;;;;;;;;5075857;28;20028;-51
2023/12/04 01:39:07;;;;;;;13.30;7.80;;;;;;;;;;5093403;28;20028;-49
2023/12/04 01:41:33;;;;;;;12.57;7.30;;;;;;;;;;5093163;28;20103;-50
2023/12/04 01:43:59;;;;;;;13.20;8.30;;;;;;;;;;5075028;28;20573;-51
2023/12/04 01:46:25;;;;;;;13.00;7.70;;;;;;;;;;5074744;28;20039;-52
2023/12/04 01:48:51;;;;;;;12.90;7.50;;;;;;;;;;5093022;28;20043;-49
2023/12/04 01:51:17;;;;;;;12.95;7.53;;;;;;;;;;5092764;28;20027;-51
2023/12/04 01:53:44;;;;;;;13.43;8.23;;;;;;;;;;5094033;28;20109;-52
2023/12/04 01:56:10;;;;;;;12.88;7.57;;;;;;;;;;5093984;28;20363;-48
2023/12/04 01:58:37;;;;;;;13.30;7.90;;;;;;;;;;5093746;28;20020;-52
2023/12/04 02:01:04;;;;;;;13.35;8.10;;;;;;;;;;5093115;28;20392;-51
2023/12/04 02:03:30;;;;;;;13.32;8.23;;;;;;;;;;5092898;28;20024;-51
2023/12/04 02:06:00;;;;;;;13.10;7.78;;;;;;;;;;5092696;28;20074;-53
2023/12/04 02:08:27;;;;;;;13.32;8.43;;;;;;;;;;5092640;28;20081;-51
2023/12/04 02:10:53;;;;;;;13.50;8.85;;;;;;;;;;5092378;28;20032;-52
2023/12/04 02:13:19;;;;;;;14.32;8.57;;;;;;;;;;5092380;28;20031;-51
2023/12/04 02:15:47;;;;;;;13.13;7.80;;;;;;;;;;5092650;28;20016;-50
2023/12/04 02:18:13;;;;;;;15.70;10.02;;;;;;;;;;5092738;28;20103;-52
2023/12/04 02:20:39;;;;;;;13.43;8.25;;;;;;;;;;5092272;28;20028;-51
2023/12/04 02:23:05;;;;;;;13.60;8.65;;;;;;;;;;5093384;28;20053;-52
2023/12/04 02:25:31;;;;;;;13.27;7.85;;;;;;;;;;5096346;28;20494;-54
2023/12/04 02:28:00;;;;;;;13.40;8.13;;;;;;;;;;5077499;28;20027;-51
2023/12/04 02:30:26;;;;;;;13.18;7.90;;;;;;;;;;5092387;28;20028;-47
2023/12/04 02:32:54;;;;;;;13.40;8.20;;;;;;;;;;5091826;28;20109;-51
2023/12/04 02:35:22;;;;;;;13.38;8.07;;;;;;;;;;5074237;28;20050;-50
2023/12/04 02:37:48;;;;;;;13.30;7.93;;;;;;;;;;5092635;28;20107;-51
2023/12/04 02:40:14;;;;;;;13.43;8.00;;;;;;;;;;5092019;28;20031;-52
2023/12/04 02:42:40;;;;;;;14.25;9.55;;;;;;;;;;5092297;28;20027;-52
2023/12/04 02:45:06;;;;;;;13.50;8.57;;;;;;;;;;5073929;28;20054;-56
2023/12/04 02:47:32;;;;;;;13.27;8.02;;;;;;;;;;5091757;28;20390;-52
2023/12/04 02:49:58;;;;;;;14.27;9.00;;;;;;;;;;5091921;28;20024;-51
2023/12/04 02:52:24;;;;;;;13.40;8.45;;;;;;;;;;5073855;28;20044;-51
2023/12/04 02:54:50;;;;;;;13.15;7.85;;;;;;;;;;5091762;28;20058;-51
2023/12/04 02:57:16;;;;;;;13.18;7.85;;;;;;;;;;5091858;28;20024;-52
2023/12/04 02:59:43;;;;;;;13.40;8.00;;;;;;;;;;5091748;28;20031;-51
2023/12/04 03:02:08;;;;;;;13.40;8.10;;;;;;;;;;5073525;28;20028;-49
2023/12/04 03:04:35;;;;;;;13.18;7.80;;;;;;;;;;5091614;28;20043;-51
2023/12/04 03:07:01;;;;;;;13.82;9.23;;;;;;;;;;5091642;28;20490;-48
2023/12/04 03:09:27;;;;;;;13.38;8.30;;;;;;;;;;5091987;28;20099;-48
2023/12/04 03:11:53;;;;;;;13.25;8.40;;;;;;;;;;5091750;28;20123;-50
2023/12/04 03:14:19;;;;;;;12.90;7.55;;;;;;;;;;5091387;28;20106;-50
2023/12/04 03:16:45;;;;;;;13.05;7.60;;;;;;;;;;5091653;28;20036;-53
2023/12/04 03:19:11;;;;;;;13.18;7.70;;;;;;;;;;5091500;28;20109;-51
2023/12/04 03:21:37;;;;;;;13.55;8.07;;;;;;;;;;5073101;28;20118;-52
2023/12/04 03:24:03;;;;;;;13.20;7.95;;;;;;;;;;5091446;28;20035;-51
2023/12/04 03:26:29;;;;;;;12.68;7.38;;;;;;;;;;5091649;28;20198;-50
2023/12/04 03:28:55;;;;;;;12.90;7.50;;;;;;;;;;5091564;28;20126;-52
2023/12/04 03:31:22;;;;;;;13.13;7.63;;;;;;;;;;5074024;28;20017;-48
2023/12/04 03:33:48;;;;;;;13.32;8.70;;;;;;;;;;5091245;28;20099;-53
2023/12/04 03:36:14;;;;;;;13.82;8.45;;;;;;;;;;5091067;28;20085;-51
2023/12/04 03:38:40;;;;;;;12.98;7.68;;;;;;;;;;5072975;28;20226;-53
2023/12/04 03:41:07;;;;;;;13.00;7.80;;;;;;;;;;5072827;28;20028;-53
2023/12/04 03:43:33;;;;;;;13.10;7.60;;;;;;;;;;5090205;28;20039;-53
2023/12/04 03:45:59;;;;;;;13.27;7.70;;;;;;;;;;5090685;28;20043;-51
2023/12/04 03:48:25;;;;;;;12.90;7.55;;;;;;;;;;5090878;28;20047;-55
2023/12/04 03:50:51;;;;;;;12.82;7.45;;;;;;;;;;5090716;28;20020;-55
2023/12/04 03:53:17;;;;;;;13.35;7.78;;;;;;;;;;5072527;28;20024;-53
2023/12/04 03:55:43;;;;;;;13.30;7.80;;;;;;;;;;5090672;28;20032;-53
2023/12/04 03:58:09;;;;;;;12.85;7.57;;;;;;;;;;5090675;28;20027;-48
2023/12/04 04:00:35;;;;;;;13.13;7.65;;;;;;;;;;5090514;28;20024;-54
2023/12/04 04:03:01;;;;;;;13.32;7.90;;;;;;;;;;5072248;28;20085;-51
2023/12/04 04:05:28;;;;;;;13.25;7.82;;;;;;;;;;5090581;28;20020;-52
2023/12/04 04:07:53;;;;;;;13.15;7.80;;;;;;;;;;5090530;28;20024;-53
2023/12/04 04:10:19;;;;;;;13.07;7.72;;;;;;;;;;5090284;28;20016;-53
2023/12/04 04:12:45;;;;;;;13.48;8.20;;;;;;;;;;5090417;28;20020;-52
2023/12/04 04:15:11;;;;;;;13.45;8.10;;;;;;;;;;5090544;28;20027;-49
2023/12/04 04:17:37;;;;;;;13.50;8.38;;;;;;;;;;5090414;28;20099;-48
2023/12/04 04:20:04;;;;;;;13.52;8.48;;;;;;;;;;5072202;28;20024;-48
2023/12/04 04:22:31;;;;;;;13.60;8.50;;;;;;;;;;5090543;28;20035;-50
2023/12/04 04:24:57;;;;;;;13.50;8.38;;;;;;;;;;5090546;28;20058;-52
2023/12/04 04:27:23;;;;;;;13.50;8.30;;;;;;;;;;5090457;28;20432;-48
2023/12/04 04:29:48;;;;;;;13.38;8.15;;;;;;;;;;5090070;28;20035;-51
2023/12/04 04:32:14;;;;;;;13.48;8.27;;;;;;;;;;5089713;28;20466;-54
2023/12/04 04:34:40;;;;;;;13.55;8.45;;;;;;;;;;5089945;28;20032;-51
2023/12/04 04:37:06;;;;;;;13.45;8.30;;;;;;;;;;5072041;28;20509;-54
2023/12/04 04:39:32;;;;;;;13.43;8.43;;;;;;;;;;5089927;28;20028;-51
2023/12/04 04:41:58;;;;;;;13.52;8.40;;;;;;;;;;5089850;28;20592;-55
2023/12/04 04:44:24;;;;;;;13.60;8.60;;;;;;;;;;5089759;28;20046;-52
2023/12/04 04:46:51;;;;;;;13.30;8.10;;;;;;;;;;5089544;28;20059;-48
2023/12/04 04:49:17;;;;;;;13.60;8.60;;;;;;;;;;5089909;28;20024;-51
2023/12/04 04:51:43;;;;;;;13.50;8.43;;;;;;;;;;5089854;28;20439;-51
2023/12/04 04:54:09;;;;;;;13.55;8.80;;;;;;;;;;5090273;28;20016;-55
2023/12/04 04:56:35;;;;;;;13.55;8.50;;;;;;;;;;5093510;28;20461;-53
2023/12/04 04:59:01;;;;;;;13.45;8.50;;;;;;;;;;5093924;28;20032;-52
2023/12/04 05:01:27;;;;;;;13.55;8.63;;;;;;;;;;5093866;28;20107;-57
2023/12/04 05:03:53;;;;;;;13.77;9.00;;;;;;;;;;5094071;28;20535;-51
2023/12/04 05:06:19;;;;;;;13.82;9.18;;;;;;;;;;5093897;28;20157;-54
2023/12/04 05:08:45;;;;;;;13.65;8.88;;;;;;;;;;5094063;28;20028;-56
2023/12/04 05:11:14;;;;;;;13.75;8.98;;;;;;;;;;5093616;28;20027;-53
2023/12/04 05:13:40;;;;;;;13.80;9.10;;;;;;;;;;5093678;28;20494;-55
2023/12/04 05:16:07;;;;;;;13.75;9.23;;;;;;;;;;5093958;28;20118;-51
2023/12/04 05:18:32;;;;;;;13.85;9.38;;;;;;;;;;5075680;28;20065;-53
2023/12/04 05:20:58;;;;;;;13.85;9.30;;;;;;;;;;5075611;28;20028;-53
2023/12/04 05:23:24;;;;;;;13.90;9.30;;;;;;;;;;5093516;28;20016;-52
2023/12/04 05:25:50;;;;;;;13.77;9.02;;;;;;;;;;5093704;28;20049;-53
2023/12/04 05:28:17;;;;;;;13.82;9.20;;;;;;;;;;5093445;28;20016;-51
2023/12/04 05:30:43;;;;;;;13.90;9.63;;;;;;;;;;5093318;28;20478;-52
2023/12/04 05:33:09;;;;;;;13.90;9.32;;;;;;;;;;5093309;28;20107;-54
2023/12/04 05:35:36;;;;;;;14.00;9.70;;;;;;;;;;5093199;28;20052;-52
2023/12/04 05:38:02;;;;;;;13.93;9.60;;;;;;;;;;5075048;28;20040;-56
2023/12/04 05:40:28;;;;;;;13.90;9.57;;;;;;;;;;5092959;28;20028;-55
2023/12/04 05:42:54;;;;;;;14.00;9.60;;;;;;;;;;5074762;28;20051;-54
2023/12/04 05:45:20;;;;;;;14.20;9.60;;;;;;;;;;5092937;28;20028;-53
2023/12/04 05:47:46;;;;;;;13.85;9.35;;;;;;;;;;5074929;28;20455;-54
2023/12/04 05:50:12;;;;;;;14.77;11.05;;;;;;;;;;5092794;28;20020;-50
2023/12/04 05:52:38;;;;;;;13.80;9.18;;;;;;;;;;5074671;28;20017;-51
2023/12/04 05:55:04;;;;;;;13.90;9.35;;;;;;;;;;5092960;28;20084;-51
2023/12/04 05:57:30;;;;;;;17.20;12.23;;;;;;;;;;5092684;28;20061;-50
2023/12/04 05:59:56;;;;;;;13.85;9.38;;;;;;;;;;5074625;28;20519;-52
2023/12/04 06:02:22;;;;;;;13.65;9.00;;;;;;;;;;5092665;28;20028;-50
2023/12/04 06:04:48;;;;;;;13.68;9.00;;;;;;;;;;5092580;28;20032;-54
2023/12/04 06:07:14;;;;;;;13.80;9.00;;;;;;;;;;5091892;28;20099;-51
2023/12/04 06:09:40;;;;;;;14.10;10.23;;;;;;;;;;5092747;28;20095;-50
2023/12/04 06:12:08;;;;;;;13.77;9.20;;;;;;;;;;5092531;28;20075;-51
2023/12/04 06:14:35;;;;;;;14.10;10.30;;;;;;;;;;5120988;22;20043;-47
2023/12/04 06:17:01;;;;;;;13.82;9.25;;;;;;;;;;5113237;28;20035;-46
2023/12/04 06:19:29;;;;;;;13.88;9.40;;;;;;;;;;5094896;28;20513;-48
2023/12/04 06:21:55;;;;;;;15.10;12.20;;;;;;;;;;5112626;28;20094;-45
2023/12/04 06:24:21;;;;;;;13.82;9.30;;;;;;;;;;5094143;28;20027;-48
2023/12/04 06:26:50;;;;;;;13.88;9.27;;;;;;;;;;5112506;28;20023;-47
2023/12/04 06:29:16;;;;;;;13.77;9.20;;;;;;;;;;5094105;28;20020;-46
2023/12/04 06:31:42;;;;;;;14.00;9.73;;;;;;;;;;5111621;28;20492;-45
2023/12/04 06:34:08;;;;;;;13.75;9.10;;;;;;;;;;5112374;28;20475;-49
2023/12/04 06:36:38;;;;;;;13.70;9.07;;;;;;;;;;5112318;28;20023;-44
2023/12/04 06:39:04;;;;;;;13.75;9.07;;;;;;;;;;5094233;28;20603;-49
2023/12/04 06:41:31;;;;;;;13.80;9.20;;;;;;;;;;5112538;28;20500;-45
2023/12/04 06:43:57;;;;;;;17.85;10.00;;;;;;;;;;5112755;28;20024;-45
2023/12/04 06:46:24;;;;;;;14.07;9.63;;;;;;;;;;5112456;28;20581;-47
2023/12/04 06:48:51;;;;;;;13.80;9.20;;;;;;;;;;5112122;28;20031;-48
2023/12/04 06:51:17;;;;;;;13.63;8.75;;;;;;;;;;5112013;28;20042;-48
2023/12/04 06:53:43;;;;;;;13.73;9.02;;;;;;;;;;5112350;28;20019;-45
2023/12/04 06:56:09;;;;;;;14.00;9.55;;;;;;;;;;5112060;28;20616;-46
2023/12/04 06:58:35;;;;;;;13.68;8.93;;;;;;;;;;5112022;28;20023;-47
2023/12/04 07:01:02;;;;;;;13.65;8.98;;;;;;;;;;5111913;28;20020;-45
2023/12/04 07:03:27;;;;;;;13.85;9.30;;;;;;;;;;5093556;28;20020;-48
2023/12/04 07:05:53;;;;;;;13.90;9.48;;;;;;;;;;5112212;28;20160;-49
2023/12/04 07:08:19;;;;;;;13.82;9.35;;;;;;;;;;5112057;28;20031;-47
2023/12/04 07:10:45;;;;;;;13.85;9.35;;;;;;;;;;5093396;28;20026;-50
2023/12/04 07:13:12;;;;;;;13.82;9.52;;;;;;;;;;5111619;28;20400;-49
2023/12/04 07:15:38;;;;;;;14.73;10.63;;;;;;;;;;5111563;28;20534;-50
2023/12/04 07:18:04;;;;;;;13.90;9.52;;;;;;;;;;5104967;28;20502;-53
2023/12/04 07:20:30;;;;;;;14.00;9.77;;;;;;;;;;5109275;28;20026;-46
2023/12/04 07:22:57;;;;;;;13.82;9.23;;;;;;;;;;5091390;28;20024;-46
2023/12/04 07:25:24;;;;;;;13.85;9.25;;;;;;;;;;5110010;28;20024;-46
2023/12/04 07:27:50;;;;;;;13.82;9.18;;;;;;;;;;5110877;28;20051;-48
2023/12/04 07:30:16;;;;;;;13.65;8.77;;;;;;;;;;5110637;28;20413;-49
2023/12/04 07:32:42;;;;;;;16.75;10.43;;;;;;;;;;5111231;28;20019;-47
2023/12/04 07:35:08;;;;;;;13.60;8.70;;;;;;;;;;5094593;28;20063;-49
2023/12/04 07:37:34;;;;;;;13.57;8.73;;;;;;;;;;5090738;28;20350;-48
2023/12/04 07:40:00;;;;;;;14.20;9.63;;;;;;;;;;5090652;28;20031;-49
2023/12/04 07:42:26;;;;;;;13.75;9.10;;;;;;;;;;5072276;28;20100;-51
2023/12/04 07:44:52;;;;;;;13.70;9.02;;;;;;;;;;5090715;28;20078;-47
2023/12/04 07:47:18;;;;;;;13.57;8.57;;;;;;;;;;5107749;28;20043;-47
2023/12/04 07:49:47;;;;;;;13.90;9.40;;;;;;;;;;5110531;28;20020;-44
2023/12/04 07:52:13;;;;;;;13.90;9.60;;;;;;;;;;5110465;28;20103;-48
2023/12/04 07:54:39;;;;;;;13.82;9.18;;;;;;;;;;5110501;28;20027;-50
2023/12/04 07:57:05;;;;;;;13.70;8.90;;;;;;;;;;5092764;28;20035;-46
2023/12/04 07:59:31;;;;;;;13.70;9.00;;;;;;;;;;5111040;28;20071;-49
2023/12/04 08:01:57;;;;;;;13.88;9.40;;;;;;;;;;5111168;28;20045;-49
2023/12/04 08:04:23;;;;;;;13.70;8.90;;;;;;;;;;5111067;28;20939;-46
2023/12/04 08:06:50;;;;;;;13.55;8.70;;;;;;;;;;5110806;28;20132;-48
2023/12/04 08:09:16;;;;;;;13.60;8.80;;;;;;;;;;5110896;28;20486;-46
2023/12/04 08:11:42;;;;;;;13.60;8.80;;;;;;;;;;5110507;28;20346;-50
2023/12/04 08:14:08;;;;;;;13.43;8.52;;;;;;;;;;5110828;28;20031;-49
2023/12/04 08:16:34;;;;;;;13.65;8.88;;;;;;;;;;5110929;28;20024;-48
2023/12/04 08:19:00;;;;;;;13.70;8.90;;;;;;;;;;5110569;28;20054;-48
2023/12/04 08:21:26;;;;;;;13.77;9.05;;;;;;;;;;5110076;28;20039;-48
2023/12/04 08:23:52;;;;;;;13.60;8.80;;;;;;;;;;5092252;28;20616;-52
2023/12/04 08:26:25;;;;;;;13.32;8.10;;;;;;;;;;5110525;28;20034;-47
2023/12/04 08:28:52;;;;;;;13.68;8.90;;;;;;;;;;5111130;28;20019;-44
2023/12/04 08:31:18;;;;;;;14.10;9.90;;;;;;;;;;5109933;28;20514;-47
2023/12/04 08:33:44;;;;;;;13.80;9.45;;;;;;;;;;5111242;28;20103;-50
2023/12/04 08:36:11;;;;;;;13.70;8.70;;;;;;;;;;5110976;28;20024;-46
2023/12/04 08:38:37;;;;;;;13.60;8.50;;;;;;;;;;5110118;28;20217;-46
2023/12/04 08:41:04;;;;;;;14.25;9.48;;;;;;;;;;5109944;28;20027;-47
2023/12/04 08:43:30;;;;;;;13.48;8.32;;;;;;;;;;5109983;28;20023;-47
2023/12/04 08:45:56;;;;;;;13.70;8.77;;;;;;;;;;5110363;28;20023;-46
2023/12/04 08:48:22;;;;;;;13.63;8.70;;;;;;;;;;5110715;28;20027;-48
2023/12/04 08:50:48;;;;;;;13.52;8.57;;;;;;;;;;5110856;28;20032;-46
2023/12/04 08:53:14;;;;;;;13.70;9.00;;;;;;;;;;5093279;28;20031;-49
2023/12/04 08:55:40;;;;;;;13.65;8.80;;;;;;;;;;5089947;28;20021;-47
2023/12/04 08:58:06;;;;;;;13.63;8.73;;;;;;;;;;5090149;28;20024;-46
2023/12/04 09:00:33;;;;;;;13.63;8.82;;;;;;;;;;5089884;28;20496;-50
2023/12/04 09:02:59;;;;;;;13.63;8.68;;;;;;;;;;5090148;28;20032;-51
2023/12/04 09:05:25;;;;;;;13.68;8.75;;;;;;;;;;5090294;28;20039;-49
2023/12/04 09:07:51;;;;;;;13.63;8.82;;;;;;;;;;5089010;28;20486;-48
2023/12/04 09:10:17;;;;;;;13.63;8.85;;;;;;;;;;5071360;28;20020;-46
2023/12/04 09:12:43;;;;;;;13.68;8.90;;;;;;;;;;5090175;28;20032;-53
2023/12/04 09:15:09;;;;;;;13.70;8.90;;;;;;;;;;5089714;28;20056;-46
2023/12/04 09:17:35;;;;;;;13.90;9.73;;;;;;;;;;5089947;28;20027;-48
2023/12/04 09:20:01;;;;;;;13.55;8.70;;;;;;;;;;5108447;28;20122;-48
2023/12/04 09:22:28;;;;;;;13.60;8.70;;;;;;;;;;5110183;28;20039;-46
2023/12/04 09:24:54;;;;;;;13.57;8.70;;;;;;;;;;5109739;28;20020;-48
2023/12/04 09:27:20;;;;;;;13.60;8.70;;;;;;;;;;5109999;28;20026;-43
2023/12/04 09:29:46;;;;;;;13.60;8.50;;;;;;;;;;5091781;28;20030;-47
2023/12/04 09:32:12;;;;;;;13.50;8.52;;;;;;;;;;5109662;28;20512;-48
2023/12/04 09:34:38;;;;;;;13.68;8.52;;;;;;;;;;5109760;28;20037;-48
2023/12/04 09:37:04;;;;;;;13.57;8.60;;;;;;;;;;5089826;28;20118;-47
2023/12/04 09:39:30;;;;;;;13.50;8.27;;;;;;;;;;5099074;28;20080;-48
2023/12/04 09:41:57;;;;;;;13.45;8.38;;;;;;;;;;5094203;28;20031;-48
2023/12/04 09:44:24;;;;;;;13.40;8.30;;;;;;;;;;5086413;28;20023;-49
2023/12/04 09:46:51;;;;;;;13.45;8.20;;;;;;;;;;5113487;28;20024;-47
2023/12/04 09:49:18;;;;;;;13.52;8.35;;;;;;;;;;5113741;28;20392;-46
2023/12/04 09:51:44;;;;;;;13.55;8.65;;;;;;;;;;5113119;28;20020;-47
2023/12/04 09:54:11;;;;;;;13.55;8.45;;;;;;;;;;5112931;28;20106;-46
2023/12/04 09:56:37;;;;;;;13.50;8.38;;;;;;;;;;5113473;28;20478;-50
2023/12/04 09:59:06;;;;;;;13.68;8.73;;;;;;;;;;5113260;28;20047;-52
2023/12/04 10:01:32;;;;;;;13.60;8.60;;;;;;;;;;5113020;28;20161;-47
2023/12/04 10:03:59;;;;;;;13.82;9.38;;;;;;;;;;5113444;28;20023;-47
2023/12/04 10:06:31;;;;;;;13.38;8.10;;;;;;;;;;5112533;28;20038;-47
2023/12/04 10:09:00;;;;;;;13.40;8.20;;;;;;;;;;5112761;28;20362;-50
2023/12/04 10:11:30;;;;;;;13.40;8.20;;;;;;;;;;5112309;28;20039;-47
2023/12/04 10:13:56;;;;;;;13.55;8.50;;;;;;;;;;5112452;28;20096;-49
2023/12/04 10:16:32;;;;;;;13.45;8.30;;;;;;;;;;5112753;28;20028;-50
2023/12/04 10:19:14;;;;;;;13.63;8.77;;;;;;;;;;5112530;28;20031;-48
2023/12/04 10:21:40;;;;;;;13.70;9.07;;;;;;;;;;5112210;28;20054;-49
2023/12/04 10:24:06;;;;;;;13.57;8.57;;;;;;;;;;5105366;28;20066;-48
2023/12/04 10:26:32;;;;;;;13.57;8.55;;;;;;;;;;5109008;28;20529;-48
2023/12/04 10:29:07;;;;;;;13.50;8.48;;;;;;;;;;5112555;28;20058;-48
2023/12/04 10:31:34;;;;;;;13.57;8.70;;;;;;;;;;5112485;28;20492;-47
2023/12/04 10:34:00;;;;;;;13.45;8.50;;;;;;;;;;5097190;28;20413;-48
2023/12/04 10:36:26;;;;;;;13.52;8.40;;;;;;;;;;5091703;28;20039;-46
2023/12/04 10:39:04;;;;;;;13.65;8.88;;;;;;;;;;5091883;28;20728;-50
2023/12/04 10:41:31;;;;;;;13.63;8.73;;;;;;;;;;5091701;28;20024;-49
2023/12/04 10:43:58;;;;;;;13.40;8.15;;;;;;;;;;5091848;28;20024;-47
2023/12/04 10:46:28;;;;;;;13.38;8.20;;;;;;;;;;5092505;28;20028;-48
2023/12/04 10:48:54;;;;;;;13.43;8.15;;;;;;;;;;5112320;28;20525;-48
2023/12/04 10:51:23;;;;;;;13.73;8.90;;;;;;;;;;5111885;28;20054;-47
2023/12/04 10:53:49;;;;;;;13.65;8.77;;;;;;;;;;5111948;28;20389;-52
2023/12/04 10:56:20;;;;;;;13.55;8.65;;;;;;;;;;5112359;28;20113;-49
2023/12/04 10:58:50;;;;;;;13.45;8.30;;;;;;;;;;5112632;28;20537;-46
2023/12/04 11:01:17;;;;;;;13.52;8.38;;;;;;;;;;5112957;28;20106;-47
2023/12/04 11:03:49;;;;;;;13.48;8.43;;;;;;;;;;5113598;28;20016;-48
2023/12/04 11:06:16;;;;;;;13.50;8.38;;;;;;;;;;5112530;28;20062;-49
2023/12/04 11:08:43;;;;;;;13.40;8.50;;;;;;;;;;5111559;27;20023;-48
2023/12/04 11:11:12;;;;;;;13.43;8.10;;;;;;;;;;5109729;28;20038;-48
2023/12/04 11:13:43;;;;;;;13.40;8.20;;;;;;;;;;5111904;28;20028;-48
2023/12/04 11:16:26;;;;;;;13.57;8.43;;;;;;;;;;5110302;28;20035;-52
2023/12/04 11:18:55;;;;;;;13.32;8.10;;;;;;;;;;5104656;28;20477;-51
2023/12/04 11:21:21;;;;;;;13.50;8.40;;;;;;;;;;5110848;28;20058;-46
2023/12/04 11:23:48;;;;;;;14.18;10.43;;;;;;;;;;5111327;28;20072;-53
2023/12/04 11:26:14;;;;;;;14.30;10.60;;;;;;;;;;5111395;28;20504;-51
2023/12/04 11:28:41;;;;;;;14.90;11.93;;;;;;;;;;5111491;28;20049;-47
2023/12/04 11:31:07;;;;;;;14.40;10.85;;;;;;;;;;5111274;28;20023;-50
2023/12/04 11:33:37;;;;;;;14.23;10.45;;;;;;;;;;5111437;28;20057;-54
2023/12/04 11:36:10;;;;;;;14.30;10.65;;;;;;;;;;5111427;28;20038;-51
2023/12/04 11:38:36;;;;;;;25.70;23.00;;;;;;;;;;5111446;28;20024;-47
2023/12/04 11:41:14;;;;;;;16.95;11.80;;;;;;;;;;5093101;28;20019;-50
2023/12/04 11:43:43;;;;;;;14.50;10.98;;;;;;;;;;5111008;28;20027;-50
2023/12/04 11:46:09;;;;;;;14.50;11.10;;;;;;;;;;5111475;28;20035;-51
2023/12/04 11:48:38;;;;;;;14.60;11.20;;;;;;;;;;5111740;28;20076;-46
2023/12/04 11:51:07;;;;;;;14.63;11.35;;;;;;;;;;5110789;28;20103;-51
2023/12/04 11:53:38;;;;;;;14.45;11.13;;;;;;;;;;5110924;28;20489;-48
2023/12/04 11:56:13;;;;;;;14.43;11.05;;;;;;;;;;5110322;28;20023;-56
2023/12/04 11:58:43;;;;;;;14.30;10.80;;;;;;;;;;5111067;28;20046;-46
2023/12/04 12:01:09;;;;;;;14.30;10.73;;;;;;;;;;5110650;28;20517;-47
2023/12/04 12:03:35;;;;;;;14.40;10.93;;;;;;;;;;5109818;28;20030;-51
2023/12/04 12:06:01;;;;;;;14.18;10.40;;;;;;;;;;5109970;28;20080;-46
2023/12/04 12:08:29;;;;;;;14.40;11.00;;;;;;;;;;5110681;28;20102;-49
2023/12/04 12:10:55;;;;;;;14.80;11.30;;;;;;;;;;5110182;28;20027;-48
2023/12/04 12:15:53;;;;;;;14.50;11.00;;;;;;;;;;5068574;28;20048;-52
2023/12/04 12:18:23;;;;;;;15.30;13.43;;;;;;;;;;5070035;28;20103;-49
2023/12/04 12:20:49;;;;;;;14.40;11.00;;;;;;;;;;5069532;28;20091;-52
2023/12/04 12:23:15;;;;;;;14.40;10.82;;;;;;;;;;5069810;28;20485;-51
2023/12/04 12:25:41;;;;;;;14.45;10.85;;;;;;;;;;5067773;28;20060;-50
2023/12/04 12:28:08;;;;;;;14.50;11.10;;;;;;;;;;5069415;28;20131;-50
2023/12/04 12:30:34;;;;;;;14.30;10.80;;;;;;;;;;5068376;28;20024;-53
2023/12/04 12:33:00;;;;;;;14.30;10.70;;;;;;;;;;5069566;28;20024;-49
2023/12/04 12:35:26;;;;;;;14.40;10.90;;;;;;;;;;5069220;28;20501;-48
2023/12/04 12:37:55;;;;;;;14.50;11.25;;;;;;;;;;5069650;28;20551;-52
2023/12/04 12:40:21;;;;;;;14.35;10.73;;;;;;;;;;5069208;28;20503;-53
2023/12/04 12:42:48;;;;;;;14.40;10.82;;;;;;;;;;5069363;28;20036;-49
2023/12/04 12:45:15;;;;;;;14.30;10.65;;;;;;;;;;5069645;28;20052;-54
2023/12/04 12:47:41;;;;;;;14.43;10.98;;;;;;;;;;5068468;28;20405;-52
2023/12/04 12:50:10;;;;;;;14.45;10.98;;;;;;;;;;5068032;28;20017;-48
2023/12/04 12:52:37;;;;;;;14.40;10.88;;;;;;;;;;5069618;28;20030;-47
2023/12/04 12:55:04;;;;;;;14.43;10.93;;;;;;;;;;5068079;28;20048;-49
2023/12/04 12:57:30;;;;;;;15.93;12.68;;;;;;;;;;5069520;28;20035;-49
2023/12/04 12:59:56;;;;;;;14.80;11.40;;;;;;;;;;5069491;28;20032;-51
2023/12/04 13:02:22;;;;;;;14.50;11.10;;;;;;;;;;5069212;28;20028;-51
2023/12/04 13:04:48;;;;;;;14.43;10.85;;;;;;;;;;5068285;28;20033;-50
2023/12/04 13:07:15;;;;;;;14.50;11.10;;;;;;;;;;5069226;28;20070;-48
2023/12/04 13:09:41;;;;;;;14.60;11.13;;;;;;;;;;5068555;28;20025;-50
2023/12/04 13:12:08;;;;;;;14.40;10.95;;;;;;;;;;5067958;28;20029;-53
2023/12/04 13:14:35;;;;;;;14.50;10.90;;;;;;;;;;5066025;28;20028;-54
2023/12/04 13:17:01;;;;;;;14.60;11.30;;;;;;;;;;5070196;28;20047;-51
2023/12/04 13:19:27;;;;;;;14.48;11.10;;;;;;;;;;5070069;28;20031;-51
2023/12/04 13:21:53;;;;;;;14.50;11.02;;;;;;;;;;5071325;28;20483;-49
2023/12/04 13:24:20;;;;;;;14.60;11.27;;;;;;;;;;5071949;28;20036;-50
2023/12/04 13:26:46;;;;;;;15.93;13.93;;;;;;;;;;5071583;28;20025;-51
2023/12/04 13:29:17;;;;;;;14.50;11.18;;;;;;;;;;5073352;28;20047;-48
2023/12/04 13:31:43;;;;;;;14.60;11.15;;;;;;;;;;5071252;28;20502;-50
2023/12/04 13:34:09;;;;;;;14.43;10.90;;;;;;;;;;5073021;28;20021;-52
2023/12/04 13:36:36;;;;;;;14.40;10.80;;;;;;;;;;5073102;28;20046;-52
2023/12/04 13:39:04;;;;;;;14.38;10.73;;;;;;;;;;5072919;28;20017;-50
2023/12/04 13:44:15;;;;;;;14.45;10.95;;;;;;;;;;5073348;28;20039;-54
2023/12/04 13:46:41;;;;;;;14.55;11.27;;;;;;;;;;5070996;28;20074;-49
2023/12/04 13:49:07;;;;;;;14.50;10.88;;;;;;;;;;5072584;28;20027;-52
2023/12/04 13:51:34;;;;;;;14.90;11.13;;;;;;;;;;5072615;28;20020;-53
2023/12/04 13:54:16;;;;;;;14.32;10.75;;;;;;;;;;5071736;28;20025;-50
2023/12/04 13:56:48;;;;;;;14.30;10.70;;;;;;;;;;5072710;28;20012;-52
2023/12/04 13:59:19;;;;;;;14.48;10.90;;;;;;;;;;5071031;28;20411;-50
2023/12/04 14:01:45;;;;;;;14.32;10.68;;;;;;;;;;5070788;28;20020;-53
2023/12/04 14:04:11;;;;;;;17.02;15.23;;;;;;;;;;5072271;28;20025;-54
2023/12/04 14:06:37;;;;;;;14.65;11.10;;;;;;;;;;5070921;28;20070;-55
2023/12/04 14:09:15;;;;;;;14.60;11.00;;;;;;;;;;5072173;28;20073;-50
2023/12/04 14:11:45;;;;;;;14.50;11.07;;;;;;;;;;5071748;28;20493;-51
2023/12/04 14:14:12;;;;;;;14.60;11.10;;;;;;;;;;5071861;28;20028;-48
2023/12/04 14:16:39;;;;;;;14.40;10.77;;;;;;;;;;5072070;28;20074;-50
2023/12/04 14:19:05;;;;;;;14.40;10.90;;;;;;;;;;5072008;28;20029;-48
2023/12/04 14:21:31;;;;;;;14.38;10.77;;;;;;;;;;5072499;28;20024;-50
2023/12/04 14:23:57;;;;;;;14.40;11.30;;;;;;;;;;5071405;28;20483;-52
2023/12/04 14:26:23;;;;;;;14.50;11.10;;;;;;;;;;5072903;28;20039;-48
2023/12/04 14:28:50;;;;;;;14.32;10.95;;;;;;;;;;5071657;28;20036;-52